• Join FlightAware (Why Join?)
  • Login
  • US Flag 
Rudolph Flight #1: Arrived! 
07:31PM EST


 

Airport Tracker/Info


-or-


 

Live Flight TrackerFlight Track Log ✈ SWA1021 ✈ 09-Apr-2013 ✈ KOAK - KLAX

Flight Track Log - Related Links

Times and Time Zones

All times are in EDT time to prevent confusion due to time zone crossing. See the SWA1021 flight status page for this flight to view local times or setup timezone preferences in your user account.

Time Position Orientation Groundspeed Altitude Reporting Facility
EDT Latitude Longitude Course Direction KTS MPH feet Rate Location/Type
10:09AM 37.7500 -122.2833 122° Southeast 177 204 2,500  Level Northern Cal TRACON
10:10AM 37.7500 -122.3500 270° West 235 270 4,700 2,100 Climbing Northern Cal TRACON
10:11AM 37.6833 -122.3833 202° Southwest 291 335 6,700 2,580 Climbing Northern Cal TRACON
10:12AM 37.6000 -122.4167 198° South 335 386 9,900 2,700 Climbing Northern Cal TRACON
10:13AM 37.4892 -122.4283 185° South 369 425 12,300 2,580 Climbing Oakland Center
10:14AM 37.2510 -122.2854 122° Southeast  Level FlightAware Approximate
10:14AM 37.4208 -122.3367 133° Southeast 364 419 15,300  Level Oakland Center
10:15AM 37.3481 -122.2394 133° Southeast 383 441 17,600 2,160 Climbing Oakland Center
10:16AM 37.2708 -122.1347 133° Southeast 403 464 19,700 2,100 Climbing Oakland Center
10:17AM 37.1928 -122.0269 132° Southeast 417 480 21,900 2,100 Climbing Oakland Center
10:18AM 37.1089 -121.9175 134° Southeast 430 495 24,000 2,160 Climbing Oakland Center
10:19AM 37.0256 -121.8031 132° Southeast 442 509 26,300 1,980 Climbing Oakland Center
10:20AM 36.9408 -121.6864 132° Southeast 452 520 28,100 1,320 Climbing Oakland Center
10:21AM 36.8522 -121.5658 133° Southeast 468 539 29,000 420 Climbing Oakland Center
10:22AM 36.7603 -121.4411 133° Southeast 471 542 29,000  Level Oakland Center
10:23AM 36.6711 -121.3219 133° Southeast 471 542 29,000  Level Oakland Center
10:24AM 36.5836 -121.2028 132° Southeast 469 540 29,000 540 Level Oakland Center
10:25AM 36.4950 -121.0844 133° Southeast 469 540 30,100 1,320 Climbing Oakland Center
10:26AM 36.3836 -120.9381 133° Southeast 484 557 31,800 1,320 Climbing Oakland Center
10:27AM 36.2917 -120.8122 132° Southeast 489 563 32,900 540 Climbing Oakland Center
10:28AM 36.1969 -120.6908 134° Southeast 491 565 32,900  Level Oakland Center
10:29AM 36.1022 -120.5686 134° Southeast 491 565 33,000  Climbing Oakland Center
10:30AM 36.0092 -120.4444 133° Southeast 494 568 33,000  Level Oakland Center
10:31AM 35.9150 -120.3225 134° Southeast 489 563 33,000  Level Oakland Center
10:32AM 35.8189 -120.1992 134° Southeast 495 570 33,000  Level Oakland Center
10:33AM 35.7225 -120.0736 133° Southeast 498 573 33,000  Level Oakland Center
10:34AM 35.6203 -119.9522 136° Southeast 507 583 33,000  Level Oakland Center
10:35AM 35.5003 -119.8492 145° Southeast 519 597 33,000 -60 Level Oakland Center
10:36AM 35.3808 -119.7464 145° Southeast 520 598 32,900 -420 Descending Oakland Center
10:36AM 35.3331 -119.7064 146° Southeast 522 601 32,500 -1,020 Descending Los Angeles Center
10:37AM 35.2150 -119.6053 145° Southeast 517 595 31,500 -1,020 Descending Los Angeles Center
10:38AM 35.0986 -119.5050 145° Southeast 513 590 30,500 -1,620 Descending Los Angeles Center
10:39AM 34.9803 -119.4028 145° Southeast 516 594 28,200 -2,400 Descending Los Angeles Center
10:40AM 34.8611 -119.3017 145° Southeast 520 598 25,700 -2,400 Descending Los Angeles Center
10:41AM 34.7469 -119.2058 145° Southeast 504 580 23,300 -2,340 Descending Los Angeles Center
10:43AM 34.6317 -119.1131 146° Southeast 479 551 20,900 -2,280 Descending Los Angeles Center
10:44AM 34.5236 -119.0247 146° Southeast 459 528 18,700 -2,160 Descending Los Angeles Center
10:45AM 34.4214 -118.9369 145° Southeast 447 514 16,500 -2,160 Descending Los Angeles Center
10:46AM 34.2892 -118.8558 153° Southeast 456 525 14,400 -2,220 Descending Los Angeles Center
10:47AM 34.1756 -118.8139 163° South 424 488 12,100 -2,160 Descending Los Angeles Center
10:48AM 34.0728 -118.7769 163° South 370 426 10,100 -1,080 Descending Los Angeles Center
10:49AM 34.0314 -118.6911 120° Southeast 297 342 10,000 -660 Descending Los Angeles Center
10:50AM 34.0219 -118.5853 96° East 291 335 8,800 -1,200 Descending Los Angeles Center
10:51AM 34.0133 -118.4917 96° East 282 325 7,500 -1,140 Descending Los Angeles Center
10:52AM 34.0144 -118.4156 89° East 265 305 6,500 -1,200 Descending Los Angeles Center
10:53AM 34.0247 -118.3169 83° East 249 287 5,000 -1,200 Descending Los Angeles Center
10:54AM 34.0072 -118.2592 110° East 215 247 4,100 -1,140 Descending Los Angeles Center
10:55AM 33.9650 -118.2869 209° Southwest 192 221 2,700 -1,440 Descending Los Angeles Center
10:56AM 33.9586 -118.3378 261° West 168 193 1,200 -1,080 Descending Los Angeles Center
10:57AM 33.9556 -118.3839 265° West 151 174 500 -480 Descending Los Angeles Center
10:58AM 33.9500 -118.4381 263° West 147 169 200 -300 Descending Los Angeles Center
11:00AM 33.9425 -118.4081 239° Southwest  Level Estimated